Time;durP1;ratioP1;P1;durP2;ratioP2;P2;SDS_P1;SDS_P2;PMS_P1;PMS_P2;Temp;Humidity;BMP_temperature;BMP_pressure;BME280_temperature;BME280_humidity;BME280_pressure;Samples;Min_cycle;Max_cycle;Signal;HPM_P1;HPM_P2
2023/01/16 00:01:32;;;;;;;3.08;1.45;;;;;;;1.64;75.27;99110.78;30749534;28;96671;-68
2023/01/16 00:16:32;;;;;;;3.33;1.20;;;;;;;1.69;74.85;99124.34;30750398;28;97259;-67
2023/01/16 00:31:33;;;;;;;1.80;1.13;;;;;;;1.73;74.79;99111.75;30749387;28;96654;-67
2023/01/16 00:46:33;;;;;;;2.90;2.03;;;;;;;1.75;74.65;99114.22;30747714;28;97148;-67
2023/01/16 01:01:34;;;;;;;3.60;1.27;;;;;;;1.88;74.95;99093.75;30745218;28;96943;-67
2023/01/16 01:16:34;;;;;;;1.33;0.85;;;;;;;2.01;73.94;99083.78;30744693;28;97171;-67
2023/01/16 01:31:36;;;;;;;2.72;1.50;;;;;;;1.58;73.69;99063.28;30743636;28;97211;-67
2023/01/16 01:46:44;;;;;;;4.60;1.52;;;;;;;1.41;74.17;99054.28;30741800;28;96681;-67
2023/01/16 02:01:45;;;;;;;0.95;0.93;;;;;;;1.51;74.40;99039.38;30739974;28;97653;-67
2023/01/16 02:32:50;;;;;;;0.98;0.70;;;;;;;1.68;73.94;99017.66;30739581;28;96604;-67
2023/01/16 02:48:10;;;;;;;1.95;0.90;;;;;;;1.67;73.91;99004.69;30708643;28;97500;-67
2023/01/16 03:03:38;;;;;;;3.17;2.08;;;;;;;1.46;73.52;98975.97;30734839;28;96591;-67
2023/01/16 03:19:01;;;;;;;3.75;1.38;;;;;;;1.21;73.81;98978.22;30733539;28;96683;-68
2023/01/16 03:34:34;;;;;;;3.80;1.73;;;;;;;1.01;74.28;98980.88;30744912;28;96742;-66
2023/01/16 03:49:40;;;;;;;1.55;1.00;;;;;;;1.09;74.38;98966.22;30746103;28;96827;-67
2023/01/16 04:04:59;;;;;;;2.03;1.00;;;;;;;1.29;74.60;98957.34;30750633;28;96591;-67
2023/01/16 04:19:59;;;;;;;2.08;0.95;;;;;;;1.37;74.15;98954.03;30748681;28;96571;-67
2023/01/16 04:35:00;;;;;;;2.35;1.48;;;;;;;1.22;73.99;98932.66;30745604;28;97034;-67
2023/01/16 04:50:00;;;;;;;2.45;1.20;;;;;;;1.05;74.69;98907.16;30744865;28;96678;-67
2023/01/16 05:05:01;;;;;;;3.42;2.00;;;;;;;0.84;74.51;98887.16;30743825;28;97198;-67
2023/01/16 05:20:01;;;;;;;3.50;2.03;;;;;;;0.96;75.08;98875.56;30740631;28;97160;-67
2023/01/16 05:35:02;;;;;;;6.68;2.22;;;;;;;1.00;74.82;98855.94;30738549;28;96839;-65
2023/01/16 05:50:03;;;;;;;2.13;1.15;;;;;;;1.10;74.85;98815.75;30735697;28;97340;-66
2023/01/16 06:05:04;;;;;;;2.03;1.40;;;;;;;1.14;74.92;98804.00;30742379;28;98097;-64
2023/01/16 06:20:04;;;;;;;4.93;1.92;;;;;;;1.18;75.09;98790.44;30741806;28;97043;-64
2023/01/16 06:35:05;;;;;;;2.83;1.35;;;;;;;1.40;74.33;98777.13;30757566;28;97087;-65
2023/01/16 06:50:06;;;;;;;5.25;2.80;;;;;;;1.15;74.17;98790.75;30846839;28;97143;-68
2023/01/16 07:05:10;;;;;;;8.00;5.32;;;;;;;1.18;74.16;98782.59;30741847;28;96840;-68
2023/01/16 07:35:30;;;;;;;2.95;1.45;;;;;;;1.58;74.51;98753.53;30833162;28;96985;-71
2023/01/16 07:50:30;;;;;;;4.10;2.22;;;;;;;1.98;73.84;98715.50;30771606;28;97569;-68
2023/01/16 08:05:31;;;;;;;3.38;2.10;;;;;;;2.35;73.45;98694.28;30726441;28;97356;-66
2023/01/16 08:20:31;;;;;;;3.33;2.00;;;;;;;2.90;72.47;98663.34;30738804;28;96875;-69
2023/01/16 08:35:31;;;;;;;3.35;1.85;;;;;;;4.34;71.17;98654.25;30744499;28;97616;-68
2023/01/16 09:05:52;;;;;;;4.87;2.93;;;;;;;16.31;47.50;98641.19;30741371;28;97595;-65
2023/01/16 09:20:52;;;;;;;2.05;1.10;;;;;;;19.68;38.76;98601.34;30750512;28;96728;-71
2023/01/16 09:35:52;;;;;;;2.85;1.30;;;;;;;21.63;32.00;98568.28;30826916;28;96714;-67
2023/01/16 09:50:57;;;;;;;2.03;0.90;;;;;;;23.22;26.31;98547.91;30860271;28;97325;-69
2023/01/16 10:06:16;;;;;;;3.60;1.63;;;;;;;26.17;22.54;98537.03;30855872;28;97020;-71
2023/01/16 10:21:38;;;;;;;3.87;1.43;;;;;;;28.37;19.83;98497.63;30808089;28;97313;-70
2023/01/16 10:36:45;;;;;;;4.90;2.17;;;;;;;28.44;19.36;98452.50;30863224;28;97492;-65
2023/01/16 10:51:46;;;;;;;6.07;1.80;;;;;;;27.77;18.18;98435.75;30804293;28;97213;-70
2023/01/16 11:06:46;;;;;;;3.85;1.40;;;;;;;30.49;16.89;98380.03;30831633;28;96941;-66
2023/01/16 11:22:11;;;;;;;5.78;1.33;;;;;;;32.00;15.55;98349.41;30749492;28;96741;-71
2023/01/16 11:37:14;;;;;;;4.47;1.60;;;;;;;31.51;14.60;98298.31;30677817;28;98074;-65
2023/01/16 11:52:29;;;;;;;4.47;1.57;;;;;;;29.60;15.00;98266.31;30684313;28;97592;-67
2023/01/16 12:07:56;;;;;;;3.47;1.50;;;;;;;32.22;14.15;98244.09;30742088;28;96798;-65
2023/01/16 12:23:27;;;;;;;4.83;2.23;;;;;;;31.64;14.22;98213.72;30731120;28;97042;-65
2023/01/16 12:38:32;;;;;;;4.80;2.30;;;;;;;30.28;14.80;98171.47;30748865;28;97217;-66
2023/01/16 12:53:50;;;;;;;5.57;1.90;;;;;;;29.60;15.01;98153.84;30744244;28;97637;-64
2023/01/16 13:09:05;;;;;;;4.37;1.80;;;;;;;30.49;14.48;98130.03;30743864;28;97516;-71
2023/01/16 13:24:12;;;;;;;5.40;1.83;;;;;;;29.14;15.23;98096.44;30745549;28;97403;-67
2023/01/16 13:39:52;;;;;;;5.00;2.00;;;;;;;27.10;16.07;98066.31;30830273;28;96966;-67
2023/01/16 13:55:06;;;;;;;4.47;1.80;;;;;;;25.44;17.70;98038.44;30822152;28;97553;-69
2023/01/16 14:10:16;;;;;;;8.03;2.80;;;;;;;23.14;19.67;98025.22;30854757;28;97290;-68
2023/01/16 14:25:21;;;;;;;5.10;2.80;;;;;;;20.70;23.23;98002.56;30851433;28;98434;-66
2023/01/16 14:55:13;;;;;;;5.83;2.77;;;;;;;17.33;27.80;97987.78;30853091;28;96780;-66
2023/01/16 14:55:57;;;;;;;5.00;2.67;;;;;;;14.27;32.35;97938.78;30849263;28;97951;-63
2023/01/16 15:11:30;;;;;;;7.03;3.00;;;;;;;10.08;38.03;97949.16;30679122;28;97063;-68
2023/01/16 15:26:54;;;;;;;7.53;3.27;;;;;;;7.24;43.42;97925.41;30728024;28;96805;-64
2023/01/16 15:57:20;;;;;;;7.60;3.38;;;;;;;4.66;51.43;97890.28;30738547;28;97552;-63
2023/01/16 16:12:22;;;;;;;11.60;4.63;;;;;;;3.97;54.42;97891.56;30728242;28;97516;-65
2023/01/16 16:27:23;;;;;;;8.20;3.88;;;;;;;3.50;56.26;97874.34;30759081;28;96663;-66
2023/01/16 16:42:26;;;;;;;6.20;3.70;;;;;;;3.12;58.69;97880.50;30741514;28;97441;-67
2023/01/16 16:57:40;;;;;;;8.70;4.22;;;;;;;2.77;59.90;97874.88;30753601;28;97305;-67
2023/01/16 17:12:42;;;;;;;14.07;6.07;;;;;;;2.35;61.30;97863.88;30704118;28;97225;-62
2023/01/16 17:27:42;;;;;;;9.25;4.45;;;;;;;1.94;62.74;97824.75;30683183;28;97609;-66
2023/01/16 17:58:02;;;;;;;17.52;8.88;;;;;;;1.30;64.58;97770.59;30734144;28;97007;-68
2023/01/16 18:28:21;;;;;;;28.55;7.60;;;;;;;1.58;66.82;97722.09;30668868;28;96783;-66
2023/01/16 19:14:00;;;;;;;20.27;11.25;;;;;;;2.40;66.49;97644.44;30769904;28;96779;-65
2023/01/16 19:29:00;;;;;;;25.88;11.18;;;;;;;2.67;66.54;97607.00;30850995;28;96839;-67
2023/01/16 19:59:20;;;;;;;24.55;10.98;;;;;;;2.56;66.09;97564.56;30849958;28;97552;-65
2023/01/16 20:14:20;;;;;;;24.77;13.05;;;;;;;2.65;66.08;97550.34;30863182;28;96699;-65
2023/01/16 20:29:24;;;;;;;29.15;12.75;;;;;;;2.71;66.97;97541.72;30868239;28;97307;-66
2023/01/16 20:59:44;;;;;;;29.20;15.02;;;;;;;2.75;67.79;97497.47;30744835;28;96813;-68
2023/01/16 21:14:47;;;;;;;24.63;15.88;;;;;;;2.78;68.73;97471.63;30743785;28;97224;-69
2023/01/16 21:29:47;;;;;;;40.92;19.38;;;;;;;2.84;69.74;97459.53;30832847;28;97090;-67
2023/01/16 22:00:07;;;;;;;39.30;20.40;;;;;;;2.94;70.93;97440.81;30739615;28;97234;-68
2023/01/16 22:30:26;;;;;;;34.40;20.20;;;;;;;3.06;71.99;97397.22;30738123;28;96562;-67
2023/01/16 23:00:46;;;;;;;21.63;16.73;;;;;;;3.01;73.24;97358.34;30733994;28;96675;-69
2023/01/16 23:15:48;;;;;;;38.85;22.05;;;;;;;2.94;73.52;97344.34;30734278;28;96781;-69
2023/01/16 23:30:49;;;;;;;33.28;16.48;;;;;;;2.76;73.97;97336.94;30733180;28;96691;-69
2023/01/16 23:45:53;;;;;;;27.33;16.15;;;;;;;2.41;74.10;97294.78;30741046;28;97370;-68
